Time;durP1;ratioP1;P1;durP2;ratioP2;P2;SDS_P1;SDS_P2;PMS_P1;PMS_P2;Temp;Humidity;BMP_temperature;BMP_pressure;BME280_temperature;BME280_humidity;BME280_pressure;Samples;Min_cycle;Max_cycle;Signal;HPM_P1;HPM_P2
2023/05/31 15:38:36;;;;;;;8.32;3.47;;;22.40;36.50;;;;;;5036938;28;20428;-64
2023/05/31 15:52:50;;;;;;;7.78;2.28;;;22.40;37.00;;;;;;5110217;27;20222;-58
2023/05/31 15:55:16;;;;;;;6.05;2.72;;;22.50;37.50;;;;;;5127891;22;20052;-58
2023/05/31 15:57:42;;;;;;;9.75;2.55;;;22.50;37.80;;;;;;5001396;28;20089;-57
2023/05/31 16:00:08;;;;;;;8.43;3.30;;;22.50;37.30;;;;;;5069969;28;20028;-58
2023/05/31 16:02:37;;;;;;;12.68;2.67;;;22.60;38.40;;;;;;4933106;28;1295735;-58
2023/05/31 16:05:03;;;;;;;8.38;2.67;;;22.60;37.60;;;;;;4889683;29;20035;-59
2023/05/31 16:07:29;;;;;;;7.68;2.40;;;22.60;37.20;;;;;;4911913;29;20035;-60
2023/05/31 16:09:56;;;;;;;5.32;2.30;;;22.60;38.20;;;;;;4932365;29;20029;-58
2023/05/31 16:12:22;;;;;;;8.60;2.88;;;22.60;38.20;;;;;;4911490;29;20106;-58
2023/05/31 16:14:48;;;;;;;14.77;3.97;;;22.60;37.90;;;;;;4922750;29;20033;-59
2023/05/31 16:17:14;;;;;;;10.35;3.55;;;22.60;38.00;;;;;;4907272;29;20028;-60
2023/05/31 16:19:40;;;;;;;8.70;3.95;;;22.60;37.70;;;;;;4911787;29;20043;-60
2023/05/31 16:22:06;;;;;;;13.63;4.70;;;22.60;37.60;;;;;;4909764;29;20033;-58
2023/05/31 16:24:32;;;;;;;11.10;4.15;;;22.60;38.60;;;;;;4911824;29;20033;-56
2023/05/31 16:26:57;;;;;;;14.05;4.03;;;22.60;39.10;;;;;;4910588;29;20033;-58
2023/05/31 16:29:23;;;;;;;12.32;4.65;;;22.60;38.60;;;;;;4911679;29;20060;-57
2023/05/31 16:31:49;;;;;;;13.02;3.85;;;22.60;38.20;;;;;;4924994;29;20492;-61
2023/05/31 16:34:15;;;;;;;8.02;3.50;;;22.60;38.40;;;;;;4925539;29;20038;-59
2023/05/31 16:36:41;;;;;;;16.80;4.20;;;22.60;38.80;;;;;;4908564;29;20031;-53
2023/05/31 16:39:07;;;;;;;15.45;4.15;;;22.70;39.70;;;;;;4911692;29;20381;-51
2023/05/31 16:41:34;;;;;;;17.10;3.95;;;22.60;40.20;;;;;;4912767;29;20033;-55
2023/05/31 16:44:00;;;;;;;12.75;3.15;;;22.60;40.20;;;;;;4896556;29;20039;-56
2023/05/31 16:46:26;;;;;;;9.63;3.67;;;22.60;40.50;;;;;;4893161;29;20405;-56
2023/05/31 16:48:51;;;;;;;7.57;3.00;;;22.50;41.40;;;;;;4892678;29;20102;-56
2023/05/31 16:51:17;;;;;;;11.60;3.47;;;22.50;41.40;;;;;;4891376;29;20040;-57
2023/05/31 16:53:43;;;;;;;7.38;3.25;;;22.40;41.60;;;;;;4881153;29;20033;-53
2023/05/31 16:56:09;;;;;;;9.10;3.20;;;22.40;41.70;;;;;;4880209;29;20040;-53
2023/05/31 16:58:34;;;;;;;8.50;3.40;;;22.40;41.90;;;;;;4880171;29;20139;-50
2023/05/31 17:01:00;;;;;;;7.30;3.03;;;22.40;42.00;;;;;;4879932;29;20029;-51
2023/05/31 17:03:26;;;;;;;11.85;3.65;;;22.40;42.00;;;;;;4879216;28;20083;-52
2023/05/31 17:05:52;;;;;;;5.57;2.78;;;22.40;42.10;;;;;;4858513;29;20029;-51
2023/05/31 17:08:19;;;;;;;10.20;3.00;;;22.40;42.20;;;;;;4857352;29;20034;-53
2023/05/31 17:10:46;;;;;;;6.03;2.75;;;22.40;42.20;;;;;;4888163;29;20064;-53
2023/05/31 17:13:13;;;;;;;7.13;2.60;;;22.40;42.30;;;;;;4858516;29;20124;-51
2023/05/31 17:15:39;;;;;;;8.68;3.13;;;22.40;42.40;;;;;;4858362;29;20034;-48
2023/05/31 17:18:05;;;;;;;9.27;3.10;;;22.30;42.30;;;;;;4858429;29;20033;-51
2023/05/31 17:20:31;;;;;;;6.25;2.78;;;22.30;42.50;;;;;;4858182;29;20561;-52
2023/05/31 17:22:57;;;;;;;8.10;3.10;;;22.40;42.60;;;;;;4858249;29;20026;-56
2023/05/31 17:25:23;;;;;;;7.60;3.05;;;22.30;42.60;;;;;;4858203;29;20073;-54
2023/05/31 17:27:49;;;;;;;7.70;2.72;;;22.40;42.70;;;;;;4858284;29;20058;-51
2023/05/31 17:30:15;;;;;;;5.13;2.58;;;22.40;42.80;;;;;;4858442;29;20025;-51
2023/05/31 17:32:41;;;;;;;7.93;3.20;;;22.40;42.80;;;;;;4872165;29;20036;-49
2023/05/31 17:35:08;;;;;;;9.70;3.15;;;22.40;42.90;;;;;;4856957;29;20404;-53
2023/05/31 17:37:35;;;;;;;7.68;3.00;;;22.40;42.90;;;;;;4858146;29;20025;-52
2023/05/31 17:40:00;;;;;;;8.75;2.78;;;22.40;43.00;;;;;;4858101;29;20037;-52
2023/05/31 17:42:26;;;;;;;5.03;2.63;;;22.40;43.10;;;;;;4857753;29;20370;-51
2023/05/31 17:44:52;;;;;;;9.50;2.60;;;22.30;43.10;;;;;;4857749;29;20033;-51
2023/05/31 17:47:18;;;;;;;6.18;2.50;;;22.30;43.10;;;;;;4858061;29;20492;-55
2023/05/31 17:49:44;;;;;;;6.65;2.58;;;22.30;43.10;;;;;;4858152;29;20108;-54
2023/05/31 17:52:10;;;;;;;5.40;2.60;;;22.30;43.20;;;;;;4857839;29;20060;-55
2023/05/31 17:54:36;;;;;;;10.38;2.97;;;22.30;43.20;;;;;;4857685;29;20493;-55
2023/05/31 17:57:01;;;;;;;6.82;2.22;;;22.30;43.30;;;;;;4857755;29;20167;-54
2023/05/31 17:59:27;;;;;;;4.40;2.42;;;22.30;43.30;;;;;;4857791;29;20026;-52
2023/05/31 18:01:53;;;;;;;3.88;2.10;;;22.30;43.30;;;;;;4851694;29;20564;-52
2023/05/31 18:04:19;;;;;;;4.45;2.00;;;22.30;43.40;;;;;;4856333;29;20029;-55
2023/05/31 18:06:46;;;;;;;6.55;2.50;;;22.30;43.40;;;;;;4857649;29;20105;-56
2023/05/31 18:09:11;;;;;;;3.90;2.30;;;22.30;43.40;;;;;;4857601;29;20538;-53
2023/05/31 18:11:38;;;;;;;4.65;2.33;;;22.30;43.50;;;;;;4857472;29;20131;-51
2023/05/31 18:14:04;;;;;;;4.85;2.55;;;22.30;43.50;;;;;;4857684;29;20088;-52
2023/05/31 18:16:30;;;;;;;3.28;2.10;;;22.30;43.50;;;;;;4857556;29;20037;-51
2023/05/31 18:18:56;;;;;;;3.88;2.22;;;22.30;43.60;;;;;;4857612;29;20035;-52
2023/05/31 18:21:22;;;;;;;5.28;2.65;;;22.30;43.60;;;;;;4857159;29;20045;-52
2023/05/31 18:23:47;;;;;;;5.95;2.67;;;22.30;43.60;;;;;;4857446;29;20029;-50
2023/05/31 18:26:14;;;;;;;8.05;2.40;;;22.30;43.70;;;;;;4857401;29;20677;-55
2023/05/31 18:28:40;;;;;;;4.60;2.30;;;22.30;43.70;;;;;;4857351;29;20036;-58
2023/05/31 18:31:07;;;;;;;3.95;2.20;;;22.30;43.70;;;;;;4857155;29;20029;-52
2023/05/31 18:33:34;;;;;;;5.75;2.50;;;22.30;43.80;;;;;;4856550;29;20040;-54
2023/05/31 18:35:59;;;;;;;5.38;2.13;;;22.30;43.80;;;;;;4857350;29;20033;-54
2023/05/31 18:38:27;;;;;;;3.53;2.20;;;22.30;43.80;;;;;;4857203;29;20559;-56
2023/05/31 18:40:52;;;;;;;3.38;2.13;;;22.30;43.80;;;;;;4856908;29;20033;-54
2023/05/31 18:43:20;;;;;;;7.13;1.98;;;22.30;44.60;;;;;;4857186;29;20040;-52
2023/05/31 18:45:46;;;;;;;4.95;2.40;;;22.30;44.00;;;;;;4857060;29;20371;-53
2023/05/31 18:48:12;;;;;;;7.03;2.47;;;22.30;44.10;;;;;;4857239;29;20054;-51
2023/05/31 18:50:38;;;;;;;3.83;2.10;;;22.30;44.00;;;;;;4856788;29;20042;-48
2023/05/31 18:53:04;;;;;;;3.72;2.30;;;22.30;44.10;;;;;;4857098;29;20616;-53
2023/05/31 18:55:29;;;;;;;5.38;2.28;;;22.30;44.60;;;;;;4857094;29;20501;-49
2023/05/31 18:57:55;;;;;;;5.75;2.50;;;22.30;44.20;;;;;;4855856;29;20033;-53
2023/05/31 19:00:24;;;;;;;4.25;2.30;;;22.30;44.20;;;;;;4856938;29;20033;-53
2023/05/31 19:02:51;;;;;;;4.35;2.20;;;22.30;44.30;;;;;;4861235;29;20493;-54
2023/05/31 19:05:17;;;;;;;3.38;1.90;;;22.30;44.20;;;;;;4875330;29;20106;-53
2023/05/31 19:07:44;;;;;;;3.45;2.03;;;22.30;44.20;;;;;;4858980;29;20051;-51
2023/05/31 19:10:10;;;;;;;4.45;2.35;;;22.30;44.20;;;;;;4875856;29;20520;-50
2023/05/31 19:12:36;;;;;;;6.38;2.47;;;22.30;44.20;;;;;;4875179;29;20029;-53
2023/05/31 19:15:02;;;;;;;6.55;2.22;;;22.30;44.30;;;;;;4875236;29;20113;-55
2023/05/31 19:17:27;;;;;;;3.00;1.85;;;22.30;44.30;;;;;;4875256;29;20033;-51
2023/05/31 19:19:55;;;;;;;4.00;2.15;;;22.30;44.30;;;;;;4875360;29;20103;-52
2023/05/31 19:22:21;;;;;;;4.18;1.85;;;22.30;44.50;;;;;;4874887;29;20507;-55
2023/05/31 19:24:46;;;;;;;6.85;2.15;;;22.30;44.40;;;;;;4875277;29;20025;-54
2023/05/31 19:27:12;;;;;;;5.40;2.25;;;22.30;44.50;;;;;;4875324;29;20108;-48
2023/05/31 19:29:38;;;;;;;4.00;1.90;;;22.30;44.40;;;;;;4875270;28;20033;-51
2023/05/31 19:32:06;;;;;;;4.43;2.25;;;22.30;44.50;;;;;;4875142;29;20036;-51
2023/05/31 19:34:32;;;;;;;5.15;2.30;;;22.30;44.50;;;;;;4875138;29;20044;-55
2023/05/31 19:37:01;;;;;;;3.53;1.88;;;22.30;44.50;;;;;;4874960;29;20177;-50
2023/05/31 19:39:27;;;;;;;4.20;2.00;;;22.30;44.50;;;;;;4875260;28;20455;-55
2023/05/31 19:41:57;;;;;;;6.00;2.35;;;22.20;44.50;;;;;;4938738;29;20112;-56
2023/05/31 19:44:22;;;;;;;3.47;2.10;;;22.30;44.50;;;;;;4875024;29;20025;-52
2023/05/31 19:46:48;;;;;;;4.90;2.22;;;22.30;44.60;;;;;;4874914;29;20389;-51
2023/05/31 19:49:14;;;;;;;3.53;1.92;;;22.30;44.70;;;;;;4875000;29;20036;-54
2023/05/31 19:51:40;;;;;;;2.58;1.67;;;22.30;44.70;;;;;;4874661;29;20116;-54
2023/05/31 19:54:06;;;;;;;3.63;2.08;;;22.30;44.70;;;;;;4874977;29;20037;-49
2023/05/31 19:56:31;;;;;;;3.85;1.80;;;22.30;45.20;;;;;;4874716;29;20030;-56
2023/05/31 19:58:58;;;;;;;3.35;1.80;;;22.30;44.70;;;;;;4874658;29;20029;-53
2023/05/31 20:01:24;;;;;;;2.85;1.90;;;22.20;44.70;;;;;;4857461;29;20029;-52
2023/05/31 20:03:50;;;;;;;9.93;2.10;;;22.20;44.80;;;;;;4848795;29;20026;-51
2023/05/31 20:06:15;;;;;;;4.97;1.77;;;22.30;44.90;;;;;;4865343;29;20057;-52
2023/05/31 20:08:41;;;;;;;5.38;1.90;;;22.30;44.80;;;;;;4858997;29;20056;-52
2023/05/31 20:11:09;;;;;;;4.72;2.00;;;22.20;44.70;;;;;;4873662;29;20032;-56
2023/05/31 20:13:36;;;;;;;4.20;2.10;;;22.30;44.90;;;;;;4855844;29;20037;-54
2023/05/31 20:16:01;;;;;;;5.57;2.38;;;22.30;45.00;;;;;;4871433;29;20033;-54
2023/05/31 20:18:27;;;;;;;3.72;2.10;;;22.30;45.50;;;;;;4858245;29;20036;-53
2023/05/31 20:20:53;;;;;;;4.95;1.73;;;22.30;45.70;;;;;;4866400;29;20557;-55
2023/05/31 20:23:19;;;;;;;6.65;2.13;;;22.30;45.80;;;;;;4851532;29;20523;-54
2023/05/31 20:25:45;;;;;;;14.38;2.20;;;22.30;46.10;;;;;;4855357;29;20022;-57
2023/05/31 20:28:11;;;;;;;12.18;2.72;;;22.30;45.80;;;;;;4857089;29;20030;-53
2023/05/31 20:30:37;;;;;;;9.70;2.13;;;22.30;46.60;;;;;;4858612;29;20032;-56
2023/05/31 20:33:03;;;;;;;16.25;2.33;;;22.30;46.80;;;;;;4855489;29;20038;-55
2023/05/31 20:35:29;;;;;;;9.45;2.50;;;22.30;46.90;;;;;;4855119;29;20074;-57
2023/05/31 20:37:55;;;;;;;10.07;2.67;;;22.30;46.70;;;;;;4854659;29;20022;-50
2023/05/31 20:40:20;;;;;;;6.32;2.10;;;22.30;46.80;;;;;;4856378;29;20120;-57
2023/05/31 20:42:46;;;;;;;7.32;2.45;;;22.30;47.00;;;;;;4855135;29;20034;-56
2023/05/31 20:45:12;;;;;;;6.05;1.88;;;22.30;47.00;;;;;;4856039;29;20524;-49
2023/05/31 20:47:38;;;;;;;12.25;2.20;;;22.30;47.20;;;;;;4855573;29;20381;-51
2023/05/31 20:50:04;;;;;;;5.00;2.15;;;22.30;47.20;;;;;;4855655;29;20026;-51
2023/05/31 20:52:30;;;;;;;6.82;2.35;;;22.30;47.30;;;;;;4855979;29;20092;-54
2023/05/31 20:54:56;;;;;;;6.68;2.30;;;22.30;47.40;;;;;;4858717;29;20596;-51
2023/05/31 20:57:21;;;;;;;11.27;2.88;;;22.30;47.50;;;;;;4854339;29;20041;-54
2023/05/31 20:59:48;;;;;;;11.63;2.42;;;22.30;47.40;;;;;;4859908;29;20029;-54
2023/05/31 21:02:13;;;;;;;9.32;2.30;;;22.40;47.50;;;;;;4854780;29;20029;-51
2023/05/31 21:04:39;;;;;;;12.50;2.50;;;22.40;47.50;;;;;;4856218;29;20564;-49
2023/05/31 21:07:05;;;;;;;10.32;2.40;;;22.40;47.50;;;;;;4855966;29;20045;-50
2023/05/31 21:09:31;;;;;;;7.97;2.33;;;22.30;47.70;;;;;;4856499;29;20038;-55
2023/05/31 21:11:57;;;;;;;7.00;2.22;;;22.40;47.70;;;;;;4855923;29;20061;-52
2023/05/31 21:14:23;;;;;;;14.57;2.70;;;22.40;47.50;;;;;;4855850;29;20493;-52
2023/05/31 21:16:50;;;;;;;15.82;2.95;;;22.40;47.60;;;;;;4855567;29;20034;-51
2023/05/31 21:19:15;;;;;;;16.08;2.42;;;22.40;47.70;;;;;;4870335;29;20033;-54
2023/05/31 21:21:41;;;;;;;9.05;2.30;;;22.40;47.60;;;;;;4854484;29;20515;-52
2023/05/31 21:24:07;;;;;;;8.77;2.30;;;22.40;47.50;;;;;;4854789;29;20112;-54
2023/05/31 21:26:33;;;;;;;16.27;2.20;;;22.40;47.60;;;;;;4862237;29;20161;-51
2023/05/31 21:28:59;;;;;;;5.97;2.65;;;22.40;47.70;;;;;;4854968;29;20485;-52
2023/05/31 21:31:28;;;;;;;12.48;2.10;;;22.40;47.70;;;;;;4854796;29;20037;-50
2023/05/31 21:33:56;;;;;;;11.63;2.53;;;22.40;47.70;;;;;;4852706;29;20100;-54
2023/05/31 21:36:22;;;;;;;9.50;2.20;;;22.40;47.50;;;;;;4855601;29;20564;-56
2023/05/31 21:38:49;;;;;;;10.88;2.90;;;22.40;47.60;;;;;;4855587;29;20033;-56
2023/05/31 21:41:15;;;;;;;7.40;2.20;;;22.40;47.80;;;;;;4854385;29;20577;-52
2023/05/31 21:43:41;;;;;;;13.10;2.47;;;22.40;47.70;;;;;;4855852;29;20117;-56
2023/05/31 21:46:10;;;;;;;7.30;2.78;;;22.40;47.90;;;;;;4855757;29;20034;-56
2023/05/31 21:48:36;;;;;;;14.05;2.70;;;22.40;47.80;;;;;;4855392;29;20036;-58
2023/05/31 21:51:02;;;;;;;5.70;2.25;;;22.40;47.90;;;;;;4855132;29;20057;-56
2023/05/31 21:53:28;;;;;;;5.90;2.03;;;22.40;48.10;;;;;;4856411;29;20037;-52
2023/05/31 21:55:54;;;;;;;14.98;2.15;;;22.40;48.10;;;;;;4894946;23;20036;-52
2023/05/31 21:58:20;;;;;;;8.88;2.47;;;22.40;48.20;;;;;;4911008;29;20063;-50
2023/05/31 22:00:45;;;;;;;7.18;2.45;;;22.40;48.30;;;;;;4909691;29;20040;-54
2023/05/31 22:03:11;;;;;;;7.68;2.75;;;22.40;48.20;;;;;;4912463;29;20036;-48
2023/05/31 22:05:37;;;;;;;4.50;2.10;;;22.40;48.30;;;;;;4912386;29;20017;-49
2023/05/31 22:08:03;;;;;;;8.90;2.55;;;22.40;48.30;;;;;;4900060;28;20025;-55
2023/05/31 22:10:29;;;;;;;6.95;2.22;;;22.30;48.30;;;;;;4909791;28;20024;-55
2023/05/31 22:12:54;;;;;;;12.70;2.90;;;22.40;48.40;;;;;;4972636;28;20562;-54
2023/05/31 22:15:25;;;;;;;6.72;2.45;;;22.40;48.40;;;;;;4913344;29;20032;-53
2023/05/31 22:17:54;;;;;;;8.50;2.70;;;22.40;48.60;;;;;;4913717;29;20029;-51
2023/05/31 22:20:20;;;;;;;9.48;2.65;;;22.40;48.50;;;;;;4900773;29;20033;-48
2023/05/31 22:22:46;;;;;;;3.80;1.83;;;22.40;48.60;;;;;;4894769;29;20032;-53
2023/05/31 22:25:12;;;;;;;9.27;2.47;;;22.30;48.40;;;;;;4894678;29;20033;-51
2023/05/31 22:27:38;;;;;;;6.43;1.92;;;22.40;48.60;;;;;;4895214;29;20086;-54
2023/05/31 22:30:04;;;;;;;5.43;1.95;;;22.30;48.50;;;;;;4902826;28;20056;-50
2023/05/31 22:32:30;;;;;;;13.20;2.58;;;22.40;48.60;;;;;;4908136;29;20024;-52
2023/05/31 22:34:56;;;;;;;21.75;2.80;;;22.40;48.70;;;;;;4895674;29;20036;-55
2023/05/31 22:37:22;;;;;;;8.57;2.13;;;22.40;48.70;;;;;;4905760;29;20032;-51
2023/05/31 22:39:47;;;;;;;11.98;2.20;;;22.50;48.80;;;;;;4918779;29;20036;-52
2023/05/31 22:46:20;;;;;;;8.88;3.00;;;22.40;48.80;;;;;;4983792;28;20088;-55
2023/05/31 22:48:45;;;;;;;9.52;2.50;;;22.30;48.50;;;;;;4978884;28;20065;-47
2023/05/31 22:51:15;;;;;;;7.20;2.53;;;22.30;48.70;;;;;;4985410;28;20026;-49
2023/05/31 22:53:42;;;;;;;5.93;1.90;;;22.20;48.70;;;;;;4977483;28;20026;-52
2023/05/31 22:56:09;;;;;;;6.63;2.20;;;22.20;48.80;;;;;;5037990;23;20136;-48
2023/05/31 22:58:35;;;;;;;15.50;2.50;;;22.20;48.80;;;;;;5031134;28;20076;-55
2023/05/31 23:01:01;;;;;;;6.28;2.40;;;22.20;48.70;;;;;;5030375;28;20037;-55
2023/05/31 23:03:27;;;;;;;12.80;2.45;;;22.30;48.70;;;;;;5030804;28;20101;-53
2023/05/31 23:05:56;;;;;;;12.13;3.10;;;22.30;48.70;;;;;;5031477;28;20022;-55
2023/05/31 23:08:25;;;;;;;10.50;2.40;;;22.20;49.30;;;;;;5031751;28;20034;-53
2023/05/31 23:10:57;;;;;;;8.73;3.10;;;22.30;48.70;;;;;;5032081;28;20025;-55
2023/05/31 23:13:26;;;;;;;13.27;3.30;;;22.30;48.80;;;;;;5031292;28;20053;-56
2023/05/31 23:15:58;;;;;;;9.50;3.30;;;22.30;48.80;;;;;;5031530;28;20068;-56
2023/05/31 23:18:24;;;;;;;14.73;3.22;;;22.30;48.70;;;;;;5031593;28;20412;-53
2023/05/31 23:20:54;;;;;;;13.93;4.18;;;22.30;48.70;;;;;;5031849;28;20028;-51
2023/05/31 23:23:21;;;;;;;11.48;3.90;;;22.30;48.90;;;;;;5031264;28;20486;-57
2023/05/31 23:25:48;;;;;;;18.52;4.72;;;22.30;48.80;;;;;;5031270;28;20022;-51
2023/05/31 23:28:15;;;;;;;17.42;4.57;;;22.30;48.80;;;;;;5031419;28;20036;-56
2023/05/31 23:30:42;;;;;;;17.52;4.90;;;22.30;48.90;;;;;;5031319;28;20033;-57
2023/05/31 23:33:08;;;;;;;18.50;4.97;;;22.30;48.90;;;;;;5030790;28;20084;-52
2023/05/31 23:35:34;;;;;;;16.88;4.78;;;22.30;49.00;;;;;;5030991;28;20520;-52
2023/05/31 23:37:59;;;;;;;19.77;4.93;;;22.30;48.90;;;;;;5031195;28;20039;-53
2023/05/31 23:40:26;;;;;;;17.50;5.40;;;22.30;48.90;;;;;;5031366;28;20033;-56
2023/05/31 23:42:51;;;;;;;21.67;5.78;;;22.30;49.00;;;;;;5030743;28;20025;-57
2023/05/31 23:45:17;;;;;;;15.73;5.03;;;22.30;49.00;;;;;;5031414;28;20447;-57
2023/05/31 23:47:43;;;;;;;16.52;4.78;;;22.30;49.00;;;;;;5031197;28;20117;-57
2023/05/31 23:50:09;;;;;;;19.73;5.53;;;22.30;49.00;;;;;;5031345;28;20033;-55
2023/05/31 23:52:35;;;;;;;18.25;5.55;;;22.30;49.20;;;;;;5030721;28;20091;-56
2023/05/31 23:55:02;;;;;;;20.42;5.55;;;22.30;49.10;;;;;;5030599;28;20035;-57
2023/05/31 23:57:30;;;;;;;22.25;5.18;;;22.30;49.10;;;;;;5031332;28;20471;-53
2023/05/31 23:59:56;;;;;;;21.65;5.47;;;22.30;49.10;;;;;;5030605;28;20072;-52
